This is the latest recevied weather packets stored in our database for station/object KF0FSA. If no packets are shown the sender has not sent any weather packets the latest 10 day(s).
| Time | Temp. | Humidity | Pressure | Rain* | Wind** | Luminosity | Snow |
|---|---|---|---|---|---|---|---|
| 1777668964 | 11.67° C | 36% | 965.4 hPa | 0 mm | - | 226 W/m² | - |
| 1777668663 | 11.67° C | 36% | 965.2 hPa | 0 mm | - | 320 W/m² | - |
| 1777667760 | 12.78° C | 35% | 965.5 hPa | 0 mm | - | 179 W/m² | - |
| 1777667461 | 12.78° C | 36% | 965.2 hPa | 0 mm | - | 814 W/m² | - |
| 1777667161 | 12.78° C | 35% | 965.1 hPa | 0 mm | - | 813 W/m² | - |
| 1777666985 | 12.78° C | 35% | 965.2 hPa | 0 mm | - | 698 W/m² | - |
| 1777666560 | 12.22° C | 38% | 965.2 hPa | 0 mm | - | 795 W/m² | - |
| 1777666261 | 12.22° C | 37% | 965.2 hPa | 0 mm | - | 828 W/m² | - |
| 1777665961 | 12.22° C | 38% | 965.2 hPa | 0 mm | - | 851 W/m² | - |
| 1777664761 | 11.11° C | 39% | 965.5 hPa | 0 mm | - | 798 W/m² | - |
| 1777664160 | 12.22° C | 36% | 965.4 hPa | 0 mm | - | 885 W/m² | - |
| 1777663861 | 11.67° C | 39% | 965.3 hPa | 0 mm | - | 910 W/m² | - |
| 1777663558 | 11.67° C | 37% | 965.4 hPa | 0 mm | - | 939 W/m² | - |
| 1777663259 | 11.67° C | 39% | 965.5 hPa | 0 mm | - | 952 W/m² | - |
| 1777662959 | 11.67° C | 39% | 965.3 hPa | 0 mm | - | 938 W/m² | - |
| 1777662658 | 11.67° C | 38% | 965.5 hPa | 0 mm | - | 908 W/m² | - |
| 1777662071 | 11.11° C | 37% | 965.5 hPa | 0 mm | - | 938 W/m² | - |
| 1777661760 | 11.11° C | 38% | 965.4 hPa | 0 mm | - | 924 W/m² | - |
| 1777661459 | 11.11° C | 38% | 965.5 hPa | 0 mm | - | 933 W/m² | - |
| 1777660557 | 11.11° C | 40% | 965.5 hPa | 0 mm | - | 958 W/m² | - |
| 1777660253 | 11.11° C | 41% | 965.4 hPa | 0 mm | - | 912 W/m² | - |
| 1777659953 | 10.56° C | 41% | 965.5 hPa | 0 mm | - | 924 W/m² | - |
| 1777659651 | 10.56° C | 41% | 965.4 hPa | 0 mm | - | 927 W/m² | - |
| 1777659350 | 10.56° C | 40% | 965.5 hPa | 0 mm | - | 935 W/m² | - |
| 1777659063 | 10° C | 43% | 965.6 hPa | 0 mm | - | 931 W/m² | - |
* Rain latest hour (hover to see other rain measurements)
** Current wind speed in m/s (hover to see current wind gust speed)